Time;durP1;ratioP1;P1;durP2;ratioP2;P2;SDS_P1;SDS_P2;PMS_P1;PMS_P2;Temp;Humidity;BMP_temperature;BMP_pressure;BME280_temperature;BME280_humidity;BME280_pressure;Samples;Min_cycle;Max_cycle;Signal;HPM_P1;HPM_P2
2023/10/11 00:02:08;;;;;;;0.60;0.60;;;;;;;;;;4997246;28;20216;-92
2023/10/11 00:04:34;;;;;;;0.50;0.50;;;;;;;;;;5015158;28;20316;-93
2023/10/11 00:07:00;;;;;;;0.67;0.67;;;;;;;;;;5015287;28;20204;-93
2023/10/11 00:09:35;;;;;;;0.60;0.60;;;;;;;;;;5014890;28;20200;-92
2023/10/11 00:12:02;;;;;;;0.57;0.57;;;;;;;;;;5014728;28;20192;-93
2023/10/11 00:14:29;;;;;;;0.50;0.50;;;;;;;;;;5015014;28;20581;-91
2023/10/11 00:16:55;;;;;;;0.60;0.60;;;;;;;;;;5014742;28;20204;-92
2023/10/11 00:19:29;;;;;;;0.50;0.50;;;;;;;;;;5015357;28;20311;-92
2023/10/11 00:21:55;;;;;;;0.70;0.70;;;;;;;;;;5014545;28;20216;-92
2023/10/11 00:24:23;;;;;;;0.70;0.70;;;;;;;;;;5014734;28;20185;-92
2023/10/11 00:26:50;;;;;;;0.50;0.50;;;;;;;;;;4997204;28;20269;-93
2023/10/11 00:29:16;;;;;;;0.63;0.63;;;;;;;;;;4997438;28;20184;-93
2023/10/11 00:31:42;;;;;;;0.60;0.60;;;;;;;;;;4996983;28;20694;-93
2023/10/11 00:34:10;;;;;;;0.73;0.73;;;;;;;;;;4999577;28;20204;-93
2023/10/11 00:36:36;;;;;;;0.50;0.50;;;;;;;;;;5016184;28;20184;-92
2023/10/11 00:39:05;;;;;;;0.60;0.60;;;;;;;;;;4998177;28;20559;-93
2023/10/11 00:41:31;;;;;;;0.57;0.57;;;;;;;;;;5016150;28;20200;-92
2023/10/11 00:43:57;;;;;;;0.60;0.60;;;;;;;;;;5015487;28;20226;-93
2023/10/11 00:46:28;;;;;;;0.60;0.60;;;;;;;;;;4998368;28;20674;-93
2023/10/11 00:48:54;;;;;;;0.57;0.57;;;;;;;;;;5017040;28;20207;-92
2023/10/11 00:51:24;;;;;;;0.60;0.60;;;;;;;;;;5016600;28;20193;-93
2023/10/11 00:53:50;;;;;;;0.50;0.50;;;;;;;;;;5017592;28;20246;-93
2023/10/11 00:56:18;;;;;;;0.60;0.60;;;;;;;;;;5038115;28;20168;-90
2023/10/11 00:58:44;;;;;;;0.60;0.60;;;;;;;;;;5038396;28;20192;-91
2023/10/11 01:01:14;;;;;;;0.60;0.60;;;;;;;;;;5021587;28;20192;-91
2023/10/11 01:03:41;;;;;;;0.60;0.60;;;;;;;;;;5039126;28;20181;-92
2023/10/11 01:06:10;;;;;;;0.60;0.60;;;;;;;;;;5038815;28;20234;-90
2023/10/11 01:08:39;;;;;;;0.40;0.40;;;;;;;;;;5031735;28;20264;-93
2023/10/11 01:11:11;;;;;;;0.50;0.50;;;;;;;;;;4998894;28;20307;-93
2023/10/11 01:13:40;;;;;;;0.70;0.70;;;;;;;;;;5019526;28;20202;-91
2023/10/11 01:16:06;;;;;;;0.60;0.60;;;;;;;;;;5038428;28;20160;-90
2023/10/11 01:18:33;;;;;;;0.60;0.60;;;;;;;;;;5029983;28;20227;-93
2023/10/11 01:21:03;;;;;;;0.53;0.53;;;;;;;;;;5020302;28;20283;-93
2023/10/11 01:23:29;;;;;;;0.60;0.60;;;;;;;;;;5018754;28;20649;-93
2023/10/11 01:25:58;;;;;;;0.60;0.60;;;;;;;;;;5019101;28;20208;-93
2023/10/11 01:28:24;;;;;;;0.70;0.70;;;;;;;;;;5017499;28;20190;-93
2023/10/11 01:30:51;;;;;;;0.50;0.50;;;;;;;;;;5017007;28;20556;-93
2023/10/11 01:33:18;;;;;;;0.60;0.60;;;;;;;;;;4999858;28;20168;-93
2023/10/11 01:35:47;;;;;;;0.50;0.50;;;;;;;;;;5017654;28;20740;-93
2023/10/11 01:38:17;;;;;;;0.50;0.50;;;;;;;;;;5018529;28;20184;-93
2023/10/11 01:40:43;;;;;;;0.60;0.60;;;;;;;;;;5017296;28;20180;-93
2023/10/11 01:43:09;;;;;;;0.70;0.70;;;;;;;;;;5020503;28;20173;-92
2023/10/11 01:45:39;;;;;;;0.50;0.50;;;;;;;;;;5021239;28;20208;-92
2023/10/11 01:48:05;;;;;;;0.50;0.50;;;;;;;;;;5020375;28;20189;-93
2023/10/11 01:50:31;;;;;;;0.60;0.60;;;;;;;;;;5022466;28;20713;-91
2023/10/11 01:52:57;;;;;;;0.50;0.50;;;;;;;;;;5023799;28;20238;-93
2023/10/11 01:55:23;;;;;;;0.70;0.70;;;;;;;;;;5021251;28;20176;-93
2023/10/11 01:57:50;;;;;;;0.70;0.70;;;;;;;;;;5020975;28;20203;-93
2023/10/11 02:00:20;;;;;;;0.57;0.57;;;;;;;;;;5021360;28;20188;-94
2023/10/11 02:02:55;;;;;;;0.57;0.57;;;;;;;;;;5020261;28;20196;-93
2023/10/11 02:05:25;;;;;;;0.70;0.70;;;;;;;;;;5020548;28;20206;-92
2023/10/11 02:07:51;;;;;;;0.70;0.70;;;;;;;;;;5022085;28;20169;-94
2023/10/11 02:10:27;;;;;;;0.60;0.60;;;;;;;;;;5036017;28;20172;-92
2023/10/11 02:12:56;;;;;;;0.60;0.60;;;;;;;;;;5042244;28;20207;-91
2023/10/11 02:15:27;;;;;;;0.60;0.60;;;;;;;;;;5042381;28;20169;-91
2023/10/11 02:17:54;;;;;;;0.60;0.60;;;;;;;;;;5034278;28;20638;-93
2023/10/11 02:20:21;;;;;;;0.60;0.60;;;;;;;;;;5020551;28;20191;-93
2023/10/11 02:22:51;;;;;;;0.60;0.60;;;;;;;;;;5003605;28;20201;-93
2023/10/11 02:25:24;;;;;;;0.57;0.57;;;;;;;;;;5019315;28;20173;-93
2023/10/11 02:27:50;;;;;;;0.67;0.67;;;;;;;;;;5019656;28;20177;-92
2023/10/11 02:30:21;;;;;;;0.57;0.57;;;;;;;;;;5020513;28;20188;-92
2023/10/11 02:32:51;;;;;;;0.60;0.60;;;;;;;;;;5003224;28;20231;-92
2023/10/11 02:35:18;;;;;;;0.60;0.60;;;;;;;;;;5020902;28;20189;-91
2023/10/11 02:37:45;;;;;;;0.70;0.70;;;;;;;;;;5026416;28;20189;-92
2023/10/11 02:40:23;;;;;;;0.60;0.60;;;;;;;;;;5026181;28;20203;-93
2023/10/11 02:42:49;;;;;;;0.60;0.60;;;;;;;;;;5023563;28;20189;-91
2023/10/11 02:45:19;;;;;;;0.50;0.50;;;;;;;;;;5027083;28;20191;-91
2023/10/11 02:47:45;;;;;;;0.60;0.60;;;;;;;;;;5022628;28;20184;-92
2023/10/11 02:50:11;;;;;;;0.60;0.60;;;;;;;;;;5020632;28;20238;-93
2023/10/11 02:52:37;;;;;;;0.63;0.63;;;;;;;;;;5019089;28;20204;-93
2023/10/11 02:55:20;;;;;;;0.70;0.70;;;;;;;;;;5018863;28;20354;-93
2023/10/11 02:57:46;;;;;;;0.50;0.50;;;;;;;;;;5020255;28;20214;-92
2023/10/11 03:00:22;;;;;;;0.60;0.60;;;;;;;;;;5004780;28;20263;-92
2023/10/11 03:02:54;;;;;;;0.50;0.50;;;;;;;;;;5023243;28;20196;-93
2023/10/11 03:05:20;;;;;;;0.60;0.60;;;;;;;;;;5003875;28;20172;-93
2023/10/11 03:07:46;;;;;;;0.60;0.60;;;;;;;;;;5003465;28;20187;-93
2023/10/11 03:10:13;;;;;;;0.60;0.60;;;;;;;;;;5020643;28;20177;-92
2023/10/11 03:12:42;;;;;;;0.70;0.70;;;;;;;;;;5019933;28;20215;-93
2023/10/11 03:15:09;;;;;;;0.60;0.60;;;;;;;;;;5019487;28;20638;-92
2023/10/11 03:17:45;;;;;;;0.60;0.60;;;;;;;;;;5002643;28;20176;-93
2023/10/11 03:20:36;;;;;;;0.60;0.60;;;;;;;;;;5020397;28;20172;-94
2023/10/11 03:23:04;;;;;;;0.60;0.60;;;;;;;;;;5022404;28;20192;-92
2023/10/11 03:25:32;;;;;;;0.50;0.50;;;;;;;;;;5005928;28;20203;-94
2023/10/11 03:27:58;;;;;;;0.70;0.70;;;;;;;;;;5023005;28;20173;-93
2023/10/11 03:30:24;;;;;;;0.70;0.70;;;;;;;;;;5027700;28;20180;-92
2023/10/11 03:32:51;;;;;;;0.60;0.60;;;;;;;;;;5025180;28;20204;-93
2023/10/11 03:35:18;;;;;;;0.60;0.60;;;;;;;;;;5024770;28;20176;-93
2023/10/11 03:37:57;;;;;;;0.70;0.70;;;;;;;;;;5024729;28;20200;-93
2023/10/11 03:40:54;;;;;;;0.80;0.80;;;;;;;;;;5024596;28;20176;-92
2023/10/11 03:43:20;;;;;;;0.60;0.60;;;;;;;;;;5023671;28;20203;-93
2023/10/11 03:45:56;;;;;;;0.70;0.70;;;;;;;;;;5028938;28;20204;-92
2023/10/11 03:48:28;;;;;;;0.70;0.70;;;;;;;;;;5034661;28;20168;-90
2023/10/11 03:50:54;;;;;;;0.60;0.60;;;;;;;;;;5039246;28;20188;-89
2023/10/11 03:53:20;;;;;;;0.50;0.50;;;;;;;;;;5036368;28;20216;-91
2023/10/11 03:55:49;;;;;;;0.60;0.60;;;;;;;;;;5022879;28;20176;-91
2023/10/11 03:58:23;;;;;;;0.60;0.60;;;;;;;;;;5027467;28;20195;-91
2023/10/11 04:00:50;;;;;;;0.70;0.70;;;;;;;;;;4997740;28;20169;-90
2023/10/11 04:03:18;;;;;;;0.50;0.50;;;;;;;;;;4996497;28;20172;-90
2023/10/11 04:05:47;;;;;;;0.70;0.70;;;;;;;;;;4996699;28;20188;-89
2023/10/11 04:08:20;;;;;;;0.70;0.70;;;;;;;;;;5014028;28;20171;-91
2023/10/11 04:10:46;;;;;;;0.60;0.60;;;;;;;;;;4995606;28;20177;-91
2023/10/11 04:13:15;;;;;;;0.70;0.70;;;;;;;;;;4996871;28;20250;-89
2023/10/11 04:15:49;;;;;;;0.60;0.60;;;;;;;;;;5015511;28;20180;-93
2023/10/11 04:18:20;;;;;;;0.53;0.53;;;;;;;;;;5016002;28;20263;-93
2023/10/11 04:21:04;;;;;;;0.60;0.60;;;;;;;;;;4997939;28;20177;-91
2023/10/11 04:23:35;;;;;;;0.70;0.70;;;;;;;;;;5010559;28;20177;-91
2023/10/11 04:26:07;;;;;;;0.60;0.60;;;;;;;;;;5003875;28;20578;-86
2023/10/11 04:28:33;;;;;;;0.80;0.80;;;;;;;;;;5020358;28;20180;-92
2023/10/11 04:33:50;;;;;;;0.60;0.60;;;;;;;;;;5015822;28;20175;-91
2023/10/11 04:36:20;;;;;;;0.63;0.63;;;;;;;;;;5015209;28;20565;-93
2023/10/11 04:38:49;;;;;;;0.70;0.70;;;;;;;;;;5016850;28;20181;-92
2023/10/11 04:41:17;;;;;;;0.70;0.70;;;;;;;;;;5027829;28;20260;-88
2023/10/11 04:43:50;;;;;;;0.60;0.60;;;;;;;;;;5037604;28;20232;-88
2023/10/11 04:46:16;;;;;;;0.60;0.60;;;;;;;;;;5038432;28;20204;-88
2023/10/11 04:48:44;;;;;;;0.60;0.60;;;;;;;;;;5034761;28;20184;-91
2023/10/11 04:53:58;;;;;;;0.60;0.60;;;;;;;;;;5016664;28;20223;-93
2023/10/11 04:56:52;;;;;;;0.50;0.50;;;;;;;;;;5015239;28;20173;-92
2023/10/11 04:59:36;;;;;;;0.60;0.60;;;;;;;;;;5014876;28;20243;-92
2023/10/11 05:02:08;;;;;;;0.60;0.60;;;;;;;;;;5014510;28;20189;-92
2023/10/11 05:04:34;;;;;;;0.60;0.60;;;;;;;;;;5014734;28;20187;-93
2023/10/11 05:07:07;;;;;;;0.60;0.60;;;;;;;;;;5014310;28;20196;-93
2023/10/11 05:09:40;;;;;;;0.50;0.50;;;;;;;;;;5014387;28;20207;-92
2023/10/11 05:12:12;;;;;;;0.57;0.57;;;;;;;;;;4997538;28;20219;-92
2023/10/11 05:19:45;;;;;;;0.63;0.63;;;;;;;;;;5014859;28;20179;-92
2023/10/11 05:23:05;;;;;;;0.60;0.60;;;;;;;;;;5014581;28;20242;-90
2023/10/11 05:25:37;;;;;;;0.60;0.60;;;;;;;;;;5010049;28;20183;-93
2023/10/11 05:28:26;;;;;;;0.70;0.70;;;;;;;;;;5014937;28;20183;-92
2023/10/11 05:31:06;;;;;;;0.60;0.60;;;;;;;;;;5015785;28;20650;-90
2023/10/11 05:33:45;;;;;;;0.50;0.50;;;;;;;;;;5014895;28;20650;-91
2023/10/11 05:36:36;;;;;;;0.60;0.60;;;;;;;;;;5014712;28;20640;-91
2023/10/11 05:52:46;;;;;;;0.63;0.63;;;;;;;;;;5015039;28;20254;-91
2023/10/11 05:55:13;;;;;;;0.60;0.60;;;;;;;;;;5015404;28;20176;-92
2023/10/11 05:57:39;;;;;;;0.70;0.70;;;;;;;;;;5013954;28;20177;-91
2023/10/11 06:00:22;;;;;;;0.67;0.67;;;;;;;;;;5014253;28;20177;-91
2023/10/11 06:02:49;;;;;;;0.60;0.60;;;;;;;;;;4996586;28;20224;-91
2023/10/11 06:05:17;;;;;;;0.50;0.50;;;;;;;;;;5014029;28;20180;-91
2023/10/11 06:07:43;;;;;;;0.70;0.70;;;;;;;;;;5014987;28;20177;-91
2023/10/11 06:10:12;;;;;;;0.70;0.70;;;;;;;;;;5009578;28;20193;-90
2023/10/11 06:12:38;;;;;;;0.70;0.70;;;;;;;;;;4995431;28;20682;-91
2023/10/11 06:15:15;;;;;;;0.70;0.70;;;;;;;;;;5018742;28;20177;-92
2023/10/11 06:17:48;;;;;;;0.57;0.57;;;;;;;;;;5017182;28;20179;-91
2023/10/11 06:20:27;;;;;;;0.67;0.67;;;;;;;;;;5015881;28;20172;-90
2023/10/11 06:22:53;;;;;;;0.53;0.53;;;;;;;;;;5013795;28;20270;-92
2023/10/11 06:25:23;;;;;;;0.50;0.50;;;;;;;;;;5016829;28;20175;-91
2023/10/11 06:30:22;;;;;;;0.60;0.60;;;;;;;;;;5016826;28;20181;-92
2023/10/11 06:32:50;;;;;;;0.60;0.60;;;;;;;;;;5015479;28;20231;-91
2023/10/11 06:35:25;;;;;;;0.50;0.50;;;;;;;;;;5017972;28;20170;-92
2023/10/11 06:37:52;;;;;;;0.47;0.47;;;;;;;;;;5018377;28;20172;-88
2023/10/11 06:40:19;;;;;;;0.40;0.40;;;;;;;;;;5003242;28;20172;-93
2023/10/11 06:42:45;;;;;;;0.50;0.50;;;;;;;;;;5020012;28;20288;-91
2023/10/11 06:45:16;;;;;;;0.40;0.40;;;;;;;;;;5000943;28;20197;-92
2023/10/11 06:47:43;;;;;;;0.40;0.40;;;;;;;;;;5000394;28;20268;-90
2023/10/11 06:50:12;;;;;;;0.40;0.40;;;;;;;;;;5019390;28;20267;-90
2023/10/11 06:52:45;;;;;;;0.50;0.50;;;;;;;;;;5018455;28;20191;-90
2023/10/11 06:57:39;;;;;;;0.30;0.30;;;;;;;;;;5016952;28;20179;-91
2023/10/11 07:00:14;;;;;;;0.30;0.30;;;;;;;;;;5018321;28;20184;-92
2023/10/11 07:02:47;;;;;;;0.40;0.40;;;;;;;;;;5015729;28;20271;-91
2023/10/11 07:05:17;;;;;;;0.40;0.40;;;;;;;;;;5015938;28;20165;-90
2023/10/11 07:07:47;;;;;;;0.40;0.40;;;;;;;;;;5016348;28;20181;-91
2023/10/11 07:10:29;;;;;;;0.33;0.33;;;;;;;;;;5016018;28;20188;-91
2023/10/11 07:13:06;;;;;;;0.40;0.40;;;;;;;;;;5016791;28;20207;-91
2023/10/11 07:15:43;;;;;;;0.43;0.43;;;;;;;;;;5017192;28;20310;-90
2023/10/11 07:18:10;;;;;;;0.43;0.43;;;;;;;;;;5015667;28;20890;-90
2023/10/11 07:20:58;;;;;;;0.30;0.30;;;;;;;;;;5016413;28;20173;-88
2023/10/11 07:23:24;;;;;;;0.40;0.40;;;;;;;;;;5027970;28;20257;-88
2023/10/11 07:26:11;;;;;;;0.40;0.40;;;;;;;;;;5039929;28;20268;-86
2023/10/11 07:28:37;;;;;;;0.40;0.40;;;;;;;;;;5039765;28;20225;-86
2023/10/11 07:31:04;;;;;;;0.40;0.40;;;;;;;;;;5022483;28;20172;-85
2023/10/11 07:33:30;;;;;;;0.40;0.40;;;;;;;;;;5035325;28;20280;-89
2023/10/11 07:35:59;;;;;;;0.40;0.40;;;;;;;;;;4997514;28;20183;-90
2023/10/11 07:38:25;;;;;;;0.30;0.30;;;;;;;;;;5014760;28;20172;-90
2023/10/11 07:40:52;;;;;;;0.43;0.43;;;;;;;;;;5014554;28;20192;-89
2023/10/11 07:43:18;;;;;;;0.50;0.50;;;;;;;;;;5015106;28;20720;-91
2023/10/11 07:45:47;;;;;;;0.40;0.40;;;;;;;;;;5013724;28;20200;-90
2023/10/11 07:48:16;;;;;;;0.50;0.50;;;;;;;;;;5014750;28;20184;-90
2023/10/11 07:50:46;;;;;;;0.60;0.60;;;;;;;;;;4996833;28;20188;-90
2023/10/11 07:53:13;;;;;;;0.60;0.60;;;;;;;;;;5014494;28;20196;-89
2023/10/11 07:55:45;;;;;;;0.67;0.67;;;;;;;;;;4997782;28;20191;-89
2023/10/11 07:58:11;;;;;;;0.50;0.50;;;;;;;;;;5014939;28;20206;-89
2023/10/11 08:00:41;;;;;;;0.70;0.70;;;;;;;;;;5013948;28;20281;-88
2023/10/11 08:03:08;;;;;;;0.70;0.70;;;;;;;;;;5014502;28;20192;-89
2023/10/11 08:05:45;;;;;;;0.60;0.60;;;;;;;;;;4996603;28;20670;-89
2023/10/11 08:08:15;;;;;;;0.40;0.40;;;;;;;;;;5014427;28;20607;-90
2023/10/11 08:10:44;;;;;;;0.70;0.70;;;;;;;;;;5013883;28;20248;-89
2023/10/11 08:13:26;;;;;;;0.70;0.70;;;;;;;;;;5014287;28;20177;-88
2023/10/11 08:15:59;;;;;;;0.60;0.60;;;;;;;;;;5013957;28;20211;-89
2023/10/11 08:18:28;;;;;;;0.50;0.50;;;;;;;;;;5014269;28;20181;-89
2023/10/11 08:20:54;;;;;;;0.70;0.70;;;;;;;;;;5013353;28;20176;-92
2023/10/11 08:23:30;;;;;;;0.50;0.50;;;;;;;;;;5013688;28;20523;-88
2023/10/11 08:25:56;;;;;;;0.43;0.43;;;;;;;;;;5013501;28;20677;-91
2023/10/11 08:28:28;;;;;;;0.60;0.60;;;;;;;;;;5013646;28;20183;-90
2023/10/11 08:30:58;;;;;;;0.60;0.60;;;;;;;;;;4993589;28;20211;-89
2023/10/11 08:33:25;;;;;;;0.60;0.60;;;;;;;;;;5014318;28;20172;-89
2023/10/11 08:35:53;;;;;;;0.43;0.43;;;;;;;;;;5013516;28;20318;-88
2023/10/11 08:38:19;;;;;;;0.60;0.60;;;;;;;;;;5013527;28;20176;-90
2023/10/11 08:40:49;;;;;;;0.47;0.47;;;;;;;;;;5012663;28;20311;-89
2023/10/11 08:43:15;;;;;;;0.50;0.50;;;;;;;;;;5012882;28;20809;-88
2023/10/11 08:45:47;;;;;;;0.57;0.57;;;;;;;;;;5012358;28;20290;-90
2023/10/11 08:48:15;;;;;;;0.40;0.40;;;;;;;;;;5013316;28;20511;-87
2023/10/11 08:50:51;;;;;;;0.45;0.45;;;;;;;;;;5012284;28;20183;-87
2023/10/11 08:53:27;;;;;;;0.40;0.40;;;;;;;;;;5013224;28;20266;-89
2023/10/11 08:55:56;;;;;;;0.20;0.20;;;;;;;;;;4995551;28;20200;-89
2023/10/11 08:58:29;;;;;;;0.45;0.45;;;;;;;;;;5012595;28;20184;-87
2023/10/11 09:00:55;;;;;;;0.38;0.38;;;;;;;;;;5012766;28;20177;-89
2023/10/11 09:03:40;;;;;;;0.40;0.40;;;;;;;;;;5013554;28;20545;-88
2023/10/11 09:06:19;;;;;;;0.40;0.40;;;;;;;;;;4995721;28;20206;-88
2023/10/11 09:08:47;;;;;;;0.38;0.38;;;;;;;;;;5014740;28;20182;-89
2023/10/11 09:11:32;;;;;;;0.30;0.30;;;;;;;;;;5026634;28;20207;-87
2023/10/11 09:14:11;;;;;;;0.40;0.40;;;;;;;;;;5018344;28;20262;-87
2023/10/11 09:16:37;;;;;;;0.20;0.20;;;;;;;;;;5008621;28;20197;-87
2023/10/11 09:19:10;;;;;;;0.30;0.30;;;;;;;;;;4996845;28;20175;-87
2023/10/11 09:21:36;;;;;;;0.45;0.45;;;;;;;;;;4993756;28;20225;-86
2023/10/11 09:24:28;;;;;;;0.20;0.20;;;;;;;;;;4994372;28;20180;-87
2023/10/11 09:27:21;;;;;;;0.30;0.30;;;;;;;;;;4984739;28;20236;-87
2023/10/11 09:29:50;;;;;;;0.25;0.25;;;;;;;;;;4992730;28;20213;-86
2023/10/11 09:32:24;;;;;;;0.10;0.10;;;;;;;;;;4992920;28;20213;-88
2023/10/11 09:34:51;;;;;;;0.13;0.13;;;;;;;;;;4992630;28;20178;-87
2023/10/11 09:37:20;;;;;;;0.20;0.20;;;;;;;;;;4992720;28;20185;-88
2023/10/11 09:39:46;;;;;;;0.10;0.10;;;;;;;;;;4992688;28;20198;-88
2023/10/11 09:42:16;;;;;;;0.17;0.17;;;;;;;;;;4992672;28;20309;-87
2023/10/11 09:44:45;;;;;;;0.32;0.32;;;;;;;;;;4992375;28;20642;-88
2023/10/11 09:47:16;;;;;;;0.20;0.20;;;;;;;;;;4992413;28;20213;-87
2023/10/11 09:49:42;;;;;;;0.30;0.30;;;;;;;;;;4992751;28;20181;-85
2023/10/11 09:52:10;;;;;;;0.03;0.03;;;;;;;;;;4992674;28;20291;-87
2023/10/11 09:54:38;;;;;;;0.25;0.25;;;;;;;;;;4992678;28;20176;-87
2023/10/11 09:57:04;;;;;;;0.30;0.30;;;;;;;;;;4995324;28;20181;-86
2023/10/11 09:59:49;;;;;;;0.10;0.10;;;;;;;;;;4994011;28;20205;-86
2023/10/11 10:02:21;;;;;;;0.10;0.10;;;;;;;;;;4973544;28;20235;-88
2023/10/11 10:04:50;;;;;;;0.10;0.10;;;;;;;;;;4992093;28;20636;-90
2023/10/11 10:07:25;;;;;;;0.08;0.08;;;;;;;;;;4996281;28;20231;-88
2023/10/11 10:09:52;;;;;;;0.20;0.20;;;;;;;;;;4996230;28;20251;-88
2023/10/11 10:12:22;;;;;;;0.00;0.00;;;;;;;;;;5001504;28;20195;-88
2023/10/11 10:14:50;;;;;;;0.28;0.28;;;;;;;;;;4996151;28;20299;-91
2023/10/11 10:17:17;;;;;;;0.10;0.10;;;;;;;;;;4996360;28;20182;-88
2023/10/11 10:19:43;;;;;;;0.10;0.10;;;;;;;;;;4978356;28;20180;-85
2023/10/11 10:22:15;;;;;;;0.10;0.10;;;;;;;;;;5004019;28;20192;-87
2023/10/11 10:24:43;;;;;;;0.20;0.20;;;;;;;;;;4996382;28;20549;-88
2023/10/11 10:27:33;;;;;;;0.20;0.20;;;;;;;;;;4979628;28;20210;-86
2023/10/11 10:30:06;;;;;;;0.20;0.20;;;;;;;;;;4997055;28;20545;-84
2023/10/11 10:32:32;;;;;;;0.10;0.10;;;;;;;;;;5019260;28;20205;-81
2023/10/11 10:35:19;;;;;;;0.20;0.20;;;;;;;;;;5020930;28;20169;-81
2023/10/11 10:37:48;;;;;;;0.40;0.40;;;;;;;;;;5020728;28;20199;-79
2023/10/11 10:40:24;;;;;;;0.40;0.40;;;;;;;;;;5011989;28;20187;-85
2023/10/11 10:43:19;;;;;;;0.47;0.47;;;;;;;;;;5001349;28;20288;-84
2023/10/11 10:45:47;;;;;;;0.38;0.38;;;;;;;;;;4999268;28;20591;-86
2023/10/11 10:48:15;;;;;;;0.40;0.40;;;;;;;;;;5003257;28;20178;-85
2023/10/11 10:50:48;;;;;;;0.43;0.43;;;;;;;;;;5015641;28;20201;-84
2023/10/11 10:53:14;;;;;;;0.50;0.50;;;;;;;;;;5002416;28;20185;-83
2023/10/11 10:55:42;;;;;;;0.40;0.40;;;;;;;;;;5021352;28;20181;-83
2023/10/11 10:58:08;;;;;;;0.20;0.20;;;;;;;;;;5021875;28;20231;-83
2023/10/11 11:00:40;;;;;;;0.35;0.35;;;;;;;;;;5020937;28;20183;-85
2023/10/11 11:03:19;;;;;;;0.30;0.30;;;;;;;;;;5020571;28;20206;-84
2023/10/11 11:05:59;;;;;;;0.32;0.32;;;;;;;;;;5018399;28;20214;-85
2023/10/11 11:08:27;;;;;;;0.30;0.30;;;;;;;;;;5001752;28;20261;-86
2023/10/11 11:11:19;;;;;;;0.30;0.30;;;;;;;;;;5021008;28;20181;-83
2023/10/11 11:13:47;;;;;;;0.15;0.15;;;;;;;;;;4990109;28;20179;-86
2023/10/11 11:16:17;;;;;;;0.30;0.30;;;;;;;;;;4995423;28;20183;-87
2023/10/11 11:18:43;;;;;;;0.40;0.40;;;;;;;;;;4995933;28;20195;-90
2023/10/11 11:21:25;;;;;;;0.20;0.20;;;;;;;;;;4996086;28;20216;-90
2023/10/11 11:23:51;;;;;;;0.20;0.20;;;;;;;;;;4995775;28;20185;-85
2023/10/11 11:26:23;;;;;;;0.25;0.25;;;;;;;;;;4997325;28;20220;-86
2023/10/11 11:28:51;;;;;;;0.35;0.35;;;;;;;;;;4996235;28;20264;-87
2023/10/11 11:31:38;;;;;;;0.38;0.38;;;;;;;;;;4995955;28;20612;-86
2023/10/11 11:34:11;;;;;;;0.38;0.38;;;;;;;;;;4998040;28;20264;-88
2023/10/11 11:36:40;;;;;;;0.20;0.20;;;;;;;;;;5000338;28;20180;-85
2023/10/11 11:39:43;;;;;;;0.35;0.35;;;;;;;;;;5008080;28;20179;-85
2023/10/11 11:42:19;;;;;;;0.30;0.30;;;;;;;;;;4991189;28;20219;-85
2023/10/11 11:44:55;;;;;;;0.30;0.30;;;;;;;;;;5000939;28;20226;-87
2023/10/11 11:47:21;;;;;;;0.30;0.30;;;;;;;;;;5001106;28;20273;-89
2023/10/11 11:49:47;;;;;;;0.40;0.40;;;;;;;;;;4999468;28;20598;-85
2023/10/11 11:52:16;;;;;;;0.40;0.40;;;;;;;;;;4997600;28;20194;-87
2023/10/11 11:54:47;;;;;;;0.50;0.50;;;;;;;;;;4990481;28;20303;-84
2023/10/11 11:57:13;;;;;;;0.40;0.40;;;;;;;;;;5015326;28;20184;-86
2023/10/11 11:59:40;;;;;;;0.30;0.30;;;;;;;;;;4995788;28;20275;-84
2023/10/11 12:02:16;;;;;;;0.30;0.30;;;;;;;;;;4997841;28;20711;-86
2023/10/11 12:04:44;;;;;;;0.40;0.40;;;;;;;;;;5016233;28;20172;-88
2023/10/11 12:07:11;;;;;;;0.30;0.30;;;;;;;;;;5008631;28;20288;-87
2023/10/11 12:09:38;;;;;;;0.30;0.30;;;;;;;;;;4996429;28;20184;-86
2023/10/11 12:12:05;;;;;;;0.30;0.30;;;;;;;;;;5014410;28;20282;-86
2023/10/11 12:14:38;;;;;;;0.20;0.20;;;;;;;;;;5014480;28;20235;-85
2023/10/11 12:17:10;;;;;;;0.20;0.20;;;;;;;;;;5014852;28;20181;-85
2023/10/11 12:19:42;;;;;;;0.20;0.20;;;;;;;;;;5015166;28;20172;-86
2023/10/11 12:22:08;;;;;;;0.20;0.20;;;;;;;;;;5023787;28;20183;-86
2023/10/11 12:24:35;;;;;;;0.13;0.13;;;;;;;;;;5038116;28;20179;-87
2023/10/11 12:27:03;;;;;;;0.20;0.20;;;;;;;;;;5037767;28;20221;-87
2023/10/11 12:29:29;;;;;;;0.20;0.20;;;;;;;;;;5037739;28;20168;-89
2023/10/11 12:31:55;;;;;;;0.10;0.10;;;;;;;;;;5036632;28;20212;-87
2023/10/11 12:34:24;;;;;;;0.20;0.20;;;;;;;;;;5022631;28;20649;-85
2023/10/11 12:36:52;;;;;;;0.10;0.10;;;;;;;;;;5015284;28;20179;-85
2023/10/11 12:39:21;;;;;;;0.20;0.20;;;;;;;;;;5014678;28;20207;-86
2023/10/11 12:41:55;;;;;;;0.20;0.20;;;;;;;;;;5015976;28;20203;-86
2023/10/11 12:44:21;;;;;;;0.43;0.43;;;;;;;;;;5015958;28;20199;-87
2023/10/11 12:46:49;;;;;;;0.35;0.35;;;;;;;;;;5014137;28;20711;-84
2023/10/11 12:49:15;;;;;;;0.50;0.50;;;;;;;;;;4997144;28;20172;-87
2023/10/11 12:51:47;;;;;;;0.43;0.43;;;;;;;;;;4997027;28;20204;-85
2023/10/11 12:54:14;;;;;;;0.52;0.52;;;;;;;;;;5014087;28;20188;-84
2023/10/11 12:56:42;;;;;;;0.40;0.40;;;;;;;;;;5014546;28;20250;-87
2023/10/11 12:59:15;;;;;;;0.50;0.50;;;;;;;;;;5013746;28;20306;-87
2023/10/11 13:01:52;;;;;;;0.60;0.60;;;;;;;;;;5014058;28;20193;-84
2023/10/11 13:04:23;;;;;;;0.43;0.43;;;;;;;;;;4996674;28;20180;-87
2023/10/11 13:06:50;;;;;;;0.50;0.50;;;;;;;;;;5015897;28;20254;-86
2023/10/11 13:09:17;;;;;;;0.57;0.57;;;;;;;;;;4998100;28;20188;-87
2023/10/11 13:11:45;;;;;;;0.50;0.50;;;;;;;;;;5013327;28;20202;-86
2023/10/11 13:14:21;;;;;;;0.60;0.60;;;;;;;;;;5013197;28;20674;-86
2023/10/11 13:16:48;;;;;;;0.57;0.57;;;;;;;;;;5014151;28;20677;-85
2023/10/11 13:19:18;;;;;;;0.55;0.55;;;;;;;;;;5032863;28;20168;-86
2023/10/11 13:21:47;;;;;;;0.60;0.60;;;;;;;;;;5037200;28;20184;-90
2023/10/11 13:24:16;;;;;;;0.60;0.60;;;;;;;;;;5038396;28;20168;-83
2023/10/11 13:26:46;;;;;;;0.40;0.40;;;;;;;;;;5037640;28;20192;-86
2023/10/11 13:29:16;;;;;;;0.40;0.40;;;;;;;;;;5022646;28;20184;-86
2023/10/11 13:31:46;;;;;;;0.57;0.57;;;;;;;;;;5013216;28;20271;-86
2023/10/11 13:34:16;;;;;;;0.50;0.50;;;;;;;;;;5012955;28;20646;-86
2023/10/11 13:36:43;;;;;;;0.63;0.63;;;;;;;;;;4997135;28;20180;-87
2023/10/11 13:39:25;;;;;;;0.60;0.60;;;;;;;;;;4976113;28;20177;-87
2023/10/11 13:41:52;;;;;;;0.60;0.60;;;;;;;;;;4976087;28;20208;-87
2023/10/11 13:44:19;;;;;;;0.60;0.60;;;;;;;;;;4993945;28;20694;-85
2023/10/11 13:46:51;;;;;;;0.50;0.50;;;;;;;;;;4999342;28;20211;-87
2023/10/11 13:49:24;;;;;;;0.50;0.50;;;;;;;;;;5013985;28;20525;-85
2023/10/11 13:51:50;;;;;;;0.50;0.50;;;;;;;;;;5012648;28;20189;-86
2023/10/11 13:54:31;;;;;;;0.60;0.60;;;;;;;;;;4997494;28;20185;-88
2023/10/11 13:56:58;;;;;;;0.50;0.50;;;;;;;;;;5010673;28;20199;-86
2023/10/11 13:59:24;;;;;;;0.50;0.50;;;;;;;;;;5014860;28;20262;-87
2023/10/11 14:02:26;;;;;;;0.60;0.60;;;;;;;;;;5012270;28;20216;-90
2023/10/11 14:04:49;;;;;;;0.60;0.60;;;;;;;;;;5012693;28;20173;-86
2023/10/11 14:09:48;;;;;;;0.50;0.50;;;;;;;;;;5013933;28;20184;-86
2023/10/11 14:12:17;;;;;;;0.47;0.47;;;;;;;;;;5014563;28;20267;-84
2023/10/11 14:14:44;;;;;;;0.60;0.60;;;;;;;;;;5029009;28;20168;-86
2023/10/11 14:17:17;;;;;;;0.60;0.60;;;;;;;;;;5018151;28;20181;-86
2023/10/11 14:19:45;;;;;;;0.50;0.50;;;;;;;;;;5034481;28;20176;-84
2023/10/11 14:22:13;;;;;;;0.50;0.50;;;;;;;;;;5012620;28;20204;-87
2023/10/11 14:24:39;;;;;;;0.50;0.50;;;;;;;;;;5013684;28;20180;-89
2023/10/11 14:27:07;;;;;;;0.50;0.50;;;;;;;;;;5012749;28;20635;-85
2023/10/11 14:29:33;;;;;;;0.50;0.50;;;;;;;;;;5013292;28;20271;-85
2023/10/11 14:31:59;;;;;;;0.70;0.70;;;;;;;;;;5012337;28;20219;-82
2023/10/11 14:34:25;;;;;;;0.50;0.50;;;;;;;;;;5013407;28;20642;-85
2023/10/11 14:36:51;;;;;;;0.47;0.47;;;;;;;;;;5013162;28;20286;-88
2023/10/11 14:39:17;;;;;;;0.40;0.40;;;;;;;;;;5012598;28;20199;-86
2023/10/11 14:41:45;;;;;;;0.30;0.30;;;;;;;;;;4993476;28;20299;-88
2023/10/11 14:44:13;;;;;;;0.40;0.40;;;;;;;;;;5012606;28;20267;-89
2023/10/11 14:46:39;;;;;;;0.40;0.40;;;;;;;;;;5012843;28;20765;-89
2023/10/11 14:49:05;;;;;;;0.40;0.40;;;;;;;;;;5012900;28;20491;-89
2023/10/11 14:51:31;;;;;;;0.40;0.40;;;;;;;;;;5013481;28;20200;-88
2023/10/11 14:53:58;;;;;;;0.50;0.50;;;;;;;;;;4995333;28;20173;-87
2023/10/11 14:56:24;;;;;;;0.40;0.40;;;;;;;;;;5015848;28;20233;-86
2023/10/11 14:58:50;;;;;;;0.50;0.50;;;;;;;;;;5015568;28;20196;-87
2023/10/11 15:01:19;;;;;;;0.40;0.40;;;;;;;;;;5016472;28;20200;-87
2023/10/11 15:03:47;;;;;;;0.50;0.50;;;;;;;;;;5021866;28;20180;-83
2023/10/11 15:06:13;;;;;;;0.40;0.40;;;;;;;;;;5033264;28;20240;-84
2023/10/11 15:08:41;;;;;;;0.40;0.40;;;;;;;;;;5040053;28;20185;-87
2023/10/11 15:11:09;;;;;;;0.50;0.50;;;;;;;;;;5040670;28;20188;-80
2023/10/11 15:13:36;;;;;;;0.40;0.40;;;;;;;;;;5024157;28;20172;-86
2023/10/11 15:16:03;;;;;;;0.37;0.37;;;;;;;;;;5023661;28;20195;-88
2023/10/11 15:18:29;;;;;;;0.40;0.40;;;;;;;;;;5039865;28;20157;-88
2023/10/11 15:20:55;;;;;;;0.47;0.47;;;;;;;;;;5039650;28;20232;-90
2023/10/11 15:23:23;;;;;;;0.50;0.50;;;;;;;;;;5040790;28;20173;-90
2023/10/11 15:25:49;;;;;;;0.20;0.20;;;;;;;;;;5022996;28;20270;-90
2023/10/11 15:28:15;;;;;;;0.30;0.30;;;;;;;;;;5022714;28;20329;-89
2023/10/11 15:30:41;;;;;;;0.50;0.50;;;;;;;;;;5039361;28;20184;-89
2023/10/11 15:33:07;;;;;;;0.30;0.30;;;;;;;;;;5039321;28;20184;-90
2023/10/11 15:35:34;;;;;;;0.40;0.40;;;;;;;;;;5039612;28;20199;-88